Time;durP1;ratioP1;P1;durP2;ratioP2;P2;SDS_P1;SDS_P2;PMS_P1;PMS_P2;Temp;Humidity;BMP_temperature;BMP_pressure;BME280_temperature;BME280_humidity;BME280_pressure;Samples;Min_cycle;Max_cycle;Signal;HPM_P1;HPM_P2
2021/07/06 00:00:37;;;;;;;2.97;1.70;;;19.10;99.90;;;;;;5033608;28;20434;-88
2021/07/06 00:03:03;;;;;;;3.30;1.52;;;19.00;99.90;;;;;;5029297;28;20040;-85
2021/07/06 00:05:29;;;;;;;1.73;1.50;;;19.10;99.90;;;;;;5033679;28;20394;-85
2021/07/06 00:07:55;;;;;;;3.63;1.60;;;19.00;99.90;;;;;;5033684;28;20040;-85
2021/07/06 00:10:22;;;;;;;2.10;1.50;;;19.00;99.90;;;;;;5037250;28;20389;-86
2021/07/06 00:12:48;;;;;;;3.28;1.60;;;19.00;99.90;;;;;;5037276;28;20033;-86
2021/07/06 00:15:16;;;;;;;3.17;1.60;;;19.10;99.90;;;;;;5037074;28;20038;-86
2021/07/06 00:17:42;;;;;;;2.85;1.65;;;19.00;99.90;;;;;;5037244;28;20081;-89
2021/07/06 00:20:10;;;;;;;2.10;1.58;;;19.00;99.90;;;;;;5036868;28;20037;-88
2021/07/06 00:22:37;;;;;;;2.55;1.63;;;19.10;99.90;;;;;;5037080;28;20029;-86
2021/07/06 00:25:05;;;;;;;1.80;1.48;;;19.00;99.90;;;;;;5037044;28;20367;-86
2021/07/06 00:27:31;;;;;;;2.85;1.40;;;19.00;99.90;;;;;;5036974;28;20028;-86
2021/07/06 00:29:56;;;;;;;2.00;1.38;;;19.00;99.90;;;;;;5036932;28;20025;-86
2021/07/06 00:32:22;;;;;;;1.95;1.48;;;19.00;99.90;;;;;;5036958;28;20118;-89
2021/07/06 00:34:47;;;;;;;2.47;1.70;;;19.00;99.90;;;;;;5036991;28;20025;-86
2021/07/06 00:37:13;;;;;;;2.08;1.55;;;19.00;99.90;;;;;;5036893;28;20112;-85
2021/07/06 00:39:39;;;;;;;2.50;1.60;;;19.00;99.90;;;;;;5036760;28;20481;-85
2021/07/06 00:42:06;;;;;;;2.30;1.55;;;19.00;99.90;;;;;;5036826;28;20025;-86
2021/07/06 00:44:32;;;;;;;2.30;1.50;;;19.00;99.90;;;;;;5036715;28;20154;-85
2021/07/06 00:46:57;;;;;;;4.03;1.40;;;19.00;99.90;;;;;;5036728;28;20048;-86
2021/07/06 00:49:23;;;;;;;4.57;1.77;;;19.00;99.90;;;;;;5036602;28;20371;-86
2021/07/06 00:51:49;;;;;;;3.50;1.30;;;19.00;99.90;;;;;;5036697;28;20061;-86
2021/07/06 00:54:14;;;;;;;3.00;1.45;;;19.00;99.90;;;;;;5036636;28;20029;-86
2021/07/06 00:56:40;;;;;;;2.55;1.45;;;19.00;99.90;;;;;;5036259;28;20367;-86
2021/07/06 00:59:06;;;;;;;2.95;1.40;;;19.00;99.90;;;;;;5036413;28;20087;-86
2021/07/06 01:01:32;;;;;;;2.60;1.50;;;19.00;99.90;;;;;;5036337;28;20025;-86
2021/07/06 01:04:01;;;;;;;2.08;1.33;;;19.00;99.90;;;;;;5036457;28;20086;-86
2021/07/06 01:06:27;;;;;;;2.55;1.45;;;19.00;99.90;;;;;;5036286;28;20029;-89
2021/07/06 01:08:53;;;;;;;3.15;1.70;;;19.00;99.90;;;;;;5036153;28;20036;-86
2021/07/06 01:11:18;;;;;;;4.13;1.80;;;19.00;99.90;;;;;;5036246;28;20071;-86
2021/07/06 01:13:44;;;;;;;2.45;1.90;;;19.00;99.90;;;;;;5036238;28;20024;-86
2021/07/06 01:16:10;;;;;;;3.53;1.70;;;19.00;99.90;;;;;;5036090;28;20389;-85
2021/07/06 01:18:36;;;;;;;3.80;1.92;;;19.00;99.90;;;;;;5035884;28;20025;-86
2021/07/06 01:21:01;;;;;;;2.67;1.80;;;19.00;99.90;;;;;;5035880;28;20036;-88
2021/07/06 01:23:29;;;;;;;2.83;1.90;;;18.90;99.90;;;;;;5035943;28;20031;-86
2021/07/06 01:26:01;;;;;;;2.78;1.65;;;18.90;99.90;;;;;;5035923;28;20029;-86
2021/07/06 01:28:27;;;;;;;2.78;1.73;;;18.90;99.90;;;;;;5035995;28;20477;-86
2021/07/06 01:30:53;;;;;;;2.67;1.50;;;18.90;99.90;;;;;;5035808;28;20028;-86
2021/07/06 01:33:23;;;;;;;2.08;1.45;;;18.90;99.90;;;;;;5035836;28;20071;-86
2021/07/06 01:35:54;;;;;;;2.28;1.70;;;18.90;99.90;;;;;;5035746;28;20067;-86
2021/07/06 01:38:20;;;;;;;2.50;1.50;;;18.90;99.90;;;;;;5035772;28;20489;-86
2021/07/06 01:40:45;;;;;;;2.17;1.52;;;18.80;99.90;;;;;;5035626;28;20396;-86
2021/07/06 01:43:11;;;;;;;3.13;1.77;;;18.90;99.90;;;;;;5035662;28;20108;-86
2021/07/06 01:45:37;;;;;;;5.18;1.90;;;18.80;99.90;;;;;;5035651;28;20025;-86
2021/07/06 01:48:03;;;;;;;1.67;1.45;;;18.80;99.90;;;;;;5035774;28;20025;-86
2021/07/06 01:50:41;;;;;;;1.80;1.33;;;18.80;99.90;;;;;;5035647;28;20541;-85
2021/07/06 01:53:10;;;;;;;2.58;1.52;;;18.80;99.90;;;;;;5035473;28;20458;-86
2021/07/06 01:55:42;;;;;;;2.72;1.50;;;18.80;99.90;;;;;;5035468;28;20028;-86
2021/07/06 01:58:10;;;;;;;2.25;1.60;;;18.80;99.90;;;;;;5052453;28;20108;-88
2021/07/06 02:00:40;;;;;;;3.67;1.70;;;18.80;99.90;;;;;;5035409;28;20028;-88
2021/07/06 02:03:06;;;;;;;2.28;1.30;;;18.80;99.90;;;;;;5035310;28;20021;-87
2021/07/06 02:05:38;;;;;;;3.83;1.60;;;18.80;99.90;;;;;;5035256;28;20029;-85
2021/07/06 02:08:07;;;;;;;2.53;1.70;;;18.80;99.90;;;;;;5051807;28;20033;-86
2021/07/06 02:10:33;;;;;;;3.65;1.73;;;18.80;99.90;;;;;;5034227;28;20025;-89
2021/07/06 02:13:01;;;;;;;3.70;1.63;;;18.70;99.90;;;;;;5035092;28;20032;-86
2021/07/06 02:15:29;;;;;;;2.53;1.65;;;18.70;99.90;;;;;;5034879;28;20490;-86
2021/07/06 02:17:55;;;;;;;2.67;1.58;;;18.70;99.90;;;;;;5035152;28;20021;-88
2021/07/06 02:20:22;;;;;;;2.70;1.50;;;18.70;99.90;;;;;;5034736;28;20497;-85
2021/07/06 02:22:49;;;;;;;4.90;1.50;;;18.70;99.90;;;;;;5034961;28;20028;-86
2021/07/06 02:25:17;;;;;;;2.38;1.30;;;18.70;99.90;;;;;;5034822;28;20106;-86
2021/07/06 02:27:47;;;;;;;2.63;1.40;;;18.70;99.90;;;;;;5034821;28;20474;-86
2021/07/06 02:30:18;;;;;;;2.05;1.40;;;18.70;99.90;;;;;;5034777;28;20033;-88
2021/07/06 02:32:45;;;;;;;2.00;1.30;;;18.70;99.90;;;;;;5034265;28;20017;-86
2021/07/06 02:35:11;;;;;;;5.10;1.48;;;18.70;99.90;;;;;;5034517;28;20025;-86
2021/07/06 02:37:37;;;;;;;2.05;1.40;;;18.70;99.90;;;;;;5034628;28;20039;-85
2021/07/06 02:40:05;;;;;;;2.10;1.30;;;18.60;99.90;;;;;;5034610;28;20104;-86
2021/07/06 02:42:31;;;;;;;1.75;1.20;;;18.60;99.90;;;;;;5034534;28;20052;-86
2021/07/06 02:44:56;;;;;;;3.05;1.45;;;18.60;99.90;;;;;;5034535;28;20474;-86
2021/07/06 02:47:22;;;;;;;2.08;1.40;;;18.60;99.90;;;;;;5034529;28;20025;-86
2021/07/06 02:49:48;;;;;;;2.28;1.30;;;18.60;99.90;;;;;;5034369;28;20121;-86
2021/07/06 02:52:13;;;;;;;2.33;1.30;;;18.60;99.90;;;;;;5034514;28;20047;-88
2021/07/06 02:54:40;;;;;;;2.85;1.10;;;18.60;99.90;;;;;;5034392;28;20046;-86
2021/07/06 02:57:09;;;;;;;2.70;1.50;;;18.60;99.90;;;;;;5034292;28;20056;-87
2021/07/06 02:59:35;;;;;;;;;;;18.60;99.90;;;;;;5034746;28;20024;-86
2021/07/06 03:02:00;;;;;;;2.38;1.05;;;18.60;99.90;;;;;;5034346;28;19911;-86
2021/07/06 03:04:26;;;;;;;3.33;1.35;;;18.60;99.90;;;;;;5034262;28;20466;-87
2021/07/06 03:06:51;;;;;;;3.05;1.50;;;18.60;99.90;;;;;;5034235;28;20025;-86
2021/07/06 03:09:17;;;;;;;3.15;1.27;;;18.70;99.90;;;;;;5034261;28;20390;-86
2021/07/06 03:11:44;;;;;;;2.33;1.40;;;18.70;99.90;;;;;;5034251;28;20028;-86
2021/07/06 03:14:10;;;;;;;3.53;1.40;;;18.70;99.90;;;;;;5034415;28;20370;-86
2021/07/06 03:16:35;;;;;;;1.35;1.13;;;18.70;99.90;;;;;;5034097;28;20232;-85
2021/07/06 03:19:01;;;;;;;2.75;1.35;;;18.70;99.90;;;;;;5034051;28;20466;-86
2021/07/06 03:21:26;;;;;;;4.10;1.58;;;18.70;99.90;;;;;;5034155;28;20052;-86
2021/07/06 03:23:52;;;;;;;3.05;1.50;;;18.70;99.90;;;;;;5034190;28;20116;-87
2021/07/06 03:26:18;;;;;;;1.63;1.08;;;18.70;99.90;;;;;;5034075;28;20032;-85
2021/07/06 03:28:43;;;;;;;2.70;1.20;;;18.70;99.90;;;;;;5033991;28;20120;-86
2021/07/06 03:31:09;;;;;;;3.22;1.38;;;18.70;99.90;;;;;;5034135;28;20115;-86
2021/07/06 03:33:34;;;;;;;4.05;1.40;;;18.70;99.90;;;;;;5033936;28;20029;-86
2021/07/06 03:36:00;;;;;;;4.88;1.50;;;18.70;99.90;;;;;;5033821;28;20079;-85
2021/07/06 03:38:26;;;;;;;2.25;1.27;;;18.70;99.90;;;;;;5034075;28;20316;-86
2021/07/06 03:40:51;;;;;;;2.67;1.23;;;18.70;99.90;;;;;;5033934;28;20048;-86
2021/07/06 03:43:17;;;;;;;3.25;1.20;;;18.70;99.90;;;;;;5036321;28;20389;-86
2021/07/06 03:45:43;;;;;;;2.38;1.20;;;18.80;99.90;;;;;;5037944;28;20064;-88
2021/07/06 03:48:08;;;;;;;2.17;1.10;;;18.70;99.90;;;;;;5037821;28;20083;-86
2021/07/06 03:50:34;;;;;;;2.08;1.25;;;18.80;99.90;;;;;;5037681;28;20132;-86
2021/07/06 03:53:00;;;;;;;2.85;1.20;;;18.80;99.90;;;;;;5038118;28;20486;-85
2021/07/06 03:55:27;;;;;;;2.85;1.25;;;18.80;99.90;;;;;;5037605;28;20078;-86
2021/07/06 03:57:53;;;;;;;3.35;1.50;;;18.80;99.90;;;;;;5037648;28;20474;-86
2021/07/06 04:00:25;;;;;;;2.50;1.40;;;18.80;99.90;;;;;;5037598;28;20048;-86
2021/07/06 04:02:51;;;;;;;3.20;1.60;;;18.80;99.90;;;;;;5037545;28;20076;-88
2021/07/06 04:05:17;;;;;;;2.88;1.20;;;18.80;99.90;;;;;;5037397;28;20494;-89
2021/07/06 04:07:44;;;;;;;3.05;1.13;;;18.90;99.90;;;;;;5037416;28;20509;-88
2021/07/06 04:10:13;;;;;;;2.78;1.27;;;18.90;99.90;;;;;;5037241;28;20017;-86
2021/07/06 04:12:39;;;;;;;1.42;1.20;;;18.90;99.90;;;;;;5037339;28;20027;-88
2021/07/06 04:15:07;;;;;;;1.67;1.15;;;18.90;99.90;;;;;;5037223;28;20124;-89
2021/07/06 04:17:33;;;;;;;5.82;1.50;;;18.90;99.90;;;;;;5037431;28;20025;-86
2021/07/06 04:19:59;;;;;;;2.78;1.30;;;18.90;99.90;;;;;;5036998;28;20033;-86
2021/07/06 04:22:24;;;;;;;4.55;1.23;;;18.90;99.90;;;;;;5037159;28;20035;-86
2021/07/06 04:24:50;;;;;;;2.05;1.00;;;18.90;99.90;;;;;;5037199;28;20108;-86
2021/07/06 04:27:16;;;;;;;3.35;1.23;;;19.00;99.90;;;;;;5037083;28;20078;-85
2021/07/06 04:29:41;;;;;;;3.25;1.45;;;19.00;99.90;;;;;;5037058;28;20033;-89
2021/07/06 04:32:07;;;;;;;2.03;1.10;;;19.00;99.90;;;;;;5036905;28;20437;-86
2021/07/06 04:34:33;;;;;;;3.22;1.50;;;19.00;99.90;;;;;;5036933;28;20025;-85
2021/07/06 04:36:58;;;;;;;1.73;1.20;;;19.10;99.90;;;;;;5036979;28;20032;-86
2021/07/06 04:39:24;;;;;;;3.05;1.05;;;19.10;99.90;;;;;;5036863;28;20083;-86
2021/07/06 04:41:50;;;;;;;4.10;1.42;;;19.10;99.90;;;;;;5036885;28;20029;-86
2021/07/06 04:44:16;;;;;;;5.85;1.20;;;19.10;99.90;;;;;;5036752;28;20029;-86
2021/07/06 04:46:42;;;;;;;1.98;1.00;;;19.20;99.90;;;;;;5036690;28;20021;-85
2021/07/06 04:49:08;;;;;;;3.08;1.13;;;19.20;99.90;;;;;;5053333;28;20154;-85
2021/07/06 04:51:34;;;;;;;6.50;1.85;;;19.20;99.90;;;;;;5036623;28;20116;-85
2021/07/06 04:54:00;;;;;;;2.72;1.23;;;19.20;99.90;;;;;;5035853;28;20033;-88
2021/07/06 04:56:27;;;;;;;2.83;1.40;;;19.20;99.90;;;;;;5036426;28;20556;-85
2021/07/06 04:58:54;;;;;;;1.98;1.25;;;19.20;99.90;;;;;;5036310;28;20131;-85
2021/07/06 05:01:20;;;;;;;4.65;1.40;;;19.20;99.90;;;;;;5036461;28;20492;-85
2021/07/06 05:03:48;;;;;;;2.22;1.23;;;19.20;99.90;;;;;;5036372;28;20032;-86
2021/07/06 05:06:15;;;;;;;2.83;1.30;;;19.20;99.90;;;;;;5052989;28;20031;-85
2021/07/06 05:08:41;;;;;;;3.85;1.38;;;19.20;99.90;;;;;;5036252;28;20183;-86
2021/07/06 05:11:06;;;;;;;6.28;1.40;;;19.20;99.90;;;;;;5036378;28;20056;-85
2021/07/06 05:13:32;;;;;;;3.22;1.35;;;19.20;99.90;;;;;;5036516;28;20141;-85
2021/07/06 05:15:58;;;;;;;4.68;1.45;;;19.20;99.90;;;;;;5036417;28;20036;-85
2021/07/06 05:18:24;;;;;;;3.88;1.67;;;19.20;99.90;;;;;;5036207;28;20025;-86
2021/07/06 05:20:49;;;;;;;4.22;1.60;;;19.20;99.90;;;;;;5036572;28;20393;-86
2021/07/06 05:23:15;;;;;;;6.30;1.67;;;19.20;99.90;;;;;;5036219;28;20032;-86
2021/07/06 05:25:41;;;;;;;6.10;1.60;;;19.20;99.90;;;;;;5036397;28;20029;-88
2021/07/06 05:28:06;;;;;;;7.00;1.70;;;19.30;99.90;;;;;;5036217;28;20029;-85
2021/07/06 05:30:32;;;;;;;5.18;1.70;;;19.30;99.90;;;;;;5035825;28;20032;-85
2021/07/06 05:32:58;;;;;;;4.65;1.60;;;19.30;99.90;;;;;;5036105;28;20040;-85
2021/07/06 05:35:24;;;;;;;3.47;1.30;;;19.30;99.90;;;;;;5035955;28;20029;-84
2021/07/06 05:37:50;;;;;;;6.50;2.00;;;19.30;99.90;;;;;;5036229;28;20150;-85
2021/07/06 05:40:15;;;;;;;1.92;1.33;;;19.20;99.90;;;;;;5036804;28;20036;-87
2021/07/06 05:42:42;;;;;;;4.90;1.90;;;19.20;99.90;;;;;;5054764;28;20021;-88
2021/07/06 05:45:09;;;;;;;7.18;2.17;;;19.20;99.90;;;;;;5035745;28;20398;-86
2021/07/06 05:47:38;;;;;;;5.15;1.77;;;19.20;99.90;;;;;;5035526;28;20044;-85
2021/07/06 05:50:06;;;;;;;3.88;1.92;;;19.20;99.90;;;;;;5053626;28;20017;-89
2021/07/06 05:52:33;;;;;;;11.00;5.35;;;19.20;99.90;;;;;;5036419;28;20413;-86
2021/07/06 05:54:59;;;;;;;8.18;3.20;;;19.20;99.90;;;;;;5035449;28;20028;-85
2021/07/06 05:57:31;;;;;;;6.78;2.33;;;19.20;99.90;;;;;;5035369;28;20029;-85
2021/07/06 06:00:03;;;;;;;6.00;2.30;;;19.20;99.90;;;;;;5035494;28;20431;-86
2021/07/06 06:02:29;;;;;;;4.85;1.92;;;19.10;99.90;;;;;;5035412;28;20079;-86
2021/07/06 06:04:54;;;;;;;6.38;2.20;;;19.10;99.90;;;;;;5035540;28;20024;-86
2021/07/06 06:07:21;;;;;;;6.32;2.08;;;19.20;99.90;;;;;;5035490;28;20029;-87
2021/07/06 06:09:47;;;;;;;7.47;2.35;;;19.10;99.90;;;;;;5035064;28;20500;-86
2021/07/06 06:12:13;;;;;;;5.53;2.13;;;19.10;99.90;;;;;;5035151;28;20033;-86
2021/07/06 06:14:39;;;;;;;4.60;1.80;;;19.10;99.90;;;;;;5035870;28;20052;-86
2021/07/06 06:17:05;;;;;;;6.00;2.17;;;19.10;99.90;;;;;;5035423;28;20101;-86
2021/07/06 06:19:30;;;;;;;7.88;2.38;;;19.10;99.90;;;;;;5034866;28;20033;-86
2021/07/06 06:21:57;;;;;;;8.20;2.30;;;19.10;99.90;;;;;;5034967;28;20021;-87
2021/07/06 06:24:22;;;;;;;5.80;2.15;;;19.00;99.90;;;;;;5035497;28;20059;-86
2021/07/06 06:26:49;;;;;;;5.03;1.95;;;19.00;99.90;;;;;;5034882;28;20393;-88
2021/07/06 06:29:18;;;;;;;5.03;1.98;;;18.90;99.90;;;;;;5034767;28;20024;-85
2021/07/06 06:31:45;;;;;;;6.53;1.95;;;19.00;99.90;;;;;;5034782;28;20560;-85
2021/07/06 06:34:11;;;;;;;6.05;2.47;;;19.00;99.90;;;;;;5034643;28;20082;-85
2021/07/06 06:36:37;;;;;;;4.65;1.80;;;18.90;99.90;;;;;;5034680;28;20040;-85
2021/07/06 06:39:04;;;;;;;5.35;2.10;;;19.00;99.90;;;;;;5034640;28;20029;-86
2021/07/06 06:41:30;;;;;;;6.72;2.00;;;18.90;99.90;;;;;;5034529;28;20117;-85
2021/07/06 06:43:56;;;;;;;5.38;2.35;;;18.90;99.90;;;;;;5034591;28;20497;-85
2021/07/06 06:46:21;;;;;;;4.72;1.77;;;18.90;99.90;;;;;;5034378;28;20359;-86
2021/07/06 06:48:48;;;;;;;4.45;1.77;;;18.90;99.90;;;;;;5034400;28;20103;-86
2021/07/06 06:51:14;;;;;;;4.90;2.10;;;18.90;99.90;;;;;;5034768;28;20052;-86
2021/07/06 06:53:40;;;;;;;3.25;1.70;;;18.90;99.90;;;;;;5034477;28;20025;-86
2021/07/06 06:56:06;;;;;;;3.38;1.75;;;18.90;99.90;;;;;;5034282;28;20026;-85
2021/07/06 06:58:32;;;;;;;2.72;1.67;;;18.80;99.90;;;;;;5034210;28;20078;-86
2021/07/06 07:00:58;;;;;;;2.67;1.58;;;18.80;99.90;;;;;;5034269;28;20108;-86
2021/07/06 07:03:23;;;;;;;4.70;1.80;;;18.80;99.90;;;;;;5034425;28;20131;-86
2021/07/06 07:05:50;;;;;;;4.13;1.60;;;18.80;99.90;;;;;;5034535;28;20394;-85
2021/07/06 07:08:16;;;;;;;4.20;1.65;;;18.80;99.90;;;;;;5034168;28;20029;-85
2021/07/06 07:10:42;;;;;;;2.53;1.30;;;18.80;99.90;;;;;;5034186;28;20078;-86
2021/07/06 07:13:08;;;;;;;2.65;1.17;;;18.80;99.90;;;;;;5033719;28;20393;-87
2021/07/06 07:15:34;;;;;;;4.93;1.50;;;18.90;99.90;;;;;;5051818;28;20028;-87
2021/07/06 07:18:00;;;;;;;4.85;2.17;;;18.90;99.90;;;;;;5033872;28;20029;-86
2021/07/06 07:20:26;;;;;;;3.90;1.60;;;19.00;99.90;;;;;;5033026;28;20397;-87
2021/07/06 07:22:52;;;;;;;2.50;1.50;;;19.00;99.90;;;;;;5033746;28;20366;-87
2021/07/06 07:25:18;;;;;;;3.65;1.27;;;19.00;99.90;;;;;;5033821;28;20071;-87
2021/07/06 07:27:44;;;;;;;3.67;1.25;;;19.10;99.90;;;;;;5033847;28;20047;-87
2021/07/06 07:30:12;;;;;;;3.40;1.38;;;19.10;99.90;;;;;;5051005;28;20281;-87
2021/07/06 07:32:38;;;;;;;3.88;1.15;;;19.10;99.90;;;;;;5051189;28;20023;-87
2021/07/06 07:35:04;;;;;;;3.20;1.60;;;19.10;99.90;;;;;;5051623;28;20103;-88
2021/07/06 07:37:30;;;;;;;6.18;2.65;;;19.10;99.90;;;;;;5051343;28;20028;-88
2021/07/06 07:39:55;;;;;;;4.80;1.90;;;19.20;99.90;;;;;;5051097;28;20398;-89
2021/07/06 07:42:21;;;;;;;2.97;1.60;;;19.20;99.90;;;;;;5033715;28;20021;-90
2021/07/06 07:44:47;;;;;;;3.90;1.70;;;19.20;99.90;;;;;;5034005;28;20025;-89
2021/07/06 07:47:13;;;;;;;2.95;1.33;;;19.20;99.90;;;;;;5033966;28;20115;-90
2021/07/06 07:49:39;;;;;;;3.40;1.50;;;19.20;99.90;;;;;;5033057;28;20593;-89
2021/07/06 07:52:04;;;;;;;5.03;1.40;;;19.20;99.90;;;;;;5051615;28;20032;-89
2021/07/06 07:54:30;;;;;;;2.58;1.20;;;19.30;99.90;;;;;;5033850;28;20367;-87
2021/07/06 07:56:57;;;;;;;3.85;2.10;;;19.30;99.90;;;;;;5033678;28;20025;-89
2021/07/06 07:59:22;;;;;;;4.35;2.30;;;19.30;99.90;;;;;;5050913;28;20389;-88
2021/07/06 08:01:48;;;;;;;6.68;1.92;;;19.30;99.90;;;;;;5033469;28;20032;-90
2021/07/06 08:04:14;;;;;;;3.42;1.90;;;19.30;99.90;;;;;;5051551;28;20049;-89
2021/07/06 08:06:39;;;;;;;3.28;1.75;;;19.30;99.90;;;;;;5033901;28;20032;-90
2021/07/06 08:09:05;;;;;;;2.83;1.50;;;19.30;99.90;;;;;;5032963;28;20033;-89
2021/07/06 08:11:31;;;;;;;6.25;1.70;;;19.30;99.90;;;;;;5033431;28;20032;-89
2021/07/06 08:13:57;;;;;;;3.15;1.80;;;19.30;99.90;;;;;;5033578;28;20394;-88
2021/07/06 08:16:22;;;;;;;3.67;1.60;;;19.30;99.90;;;;;;5033656;28;20204;-89
2021/07/06 08:18:48;;;;;;;4.95;1.73;;;19.40;99.90;;;;;;5033180;28;20071;-90
2021/07/06 08:21:14;;;;;;;5.22;2.08;;;19.40;99.90;;;;;;5033315;28;20028;-89
2021/07/06 08:23:39;;;;;;;4.80;2.10;;;19.40;99.90;;;;;;5033373;28;20444;-89
2021/07/06 08:26:05;;;;;;;4.45;1.75;;;19.40;99.90;;;;;;5051426;28;20086;-88
2021/07/06 08:28:31;;;;;;;3.97;2.13;;;19.50;99.90;;;;;;5033677;28;20087;-90
2021/07/06 08:30:56;;;;;;;4.82;2.00;;;19.40;99.90;;;;;;5035881;28;20025;-89
2021/07/06 08:33:22;;;;;;;4.63;1.98;;;19.40;99.90;;;;;;5036951;28;20021;-88
2021/07/06 08:35:48;;;;;;;4.50;2.10;;;19.50;99.90;;;;;;5036807;28;20025;-90
2021/07/06 08:38:14;;;;;;;4.57;2.13;;;19.50;99.90;;;;;;5036888;28;20037;-88
2021/07/06 08:40:42;;;;;;;4.70;2.40;;;19.50;99.90;;;;;;5036120;28;20021;-89
2021/07/06 08:43:08;;;;;;;5.07;2.20;;;19.50;99.90;;;;;;5036650;28;20032;-89
2021/07/06 08:45:34;;;;;;;4.35;2.40;;;19.50;99.90;;;;;;5036802;28;20025;-89
2021/07/06 08:48:00;;;;;;;4.93;3.40;;;19.50;99.90;;;;;;5036634;28;20044;-89
2021/07/06 08:50:26;;;;;;;6.03;3.05;;;19.50;99.90;;;;;;5053777;28;20032;-88
2021/07/06 08:52:53;;;;;;;7.65;2.90;;;19.50;99.90;;;;;;5036551;28;20025;-88
2021/07/06 08:55:20;;;;;;;5.07;2.55;;;19.50;99.90;;;;;;5036333;28;20110;-90
2021/07/06 08:57:47;;;;;;;6.25;2.47;;;19.60;99.90;;;;;;5054337;28;20028;-89
2021/07/06 09:00:15;;;;;;;2.67;2.00;;;19.60;99.90;;;;;;5035871;28;20203;-89
2021/07/06 09:02:41;;;;;;;4.55;2.72;;;19.70;99.90;;;;;;5054110;28;20025;-90
2021/07/06 09:05:20;;;;;;;3.67;2.42;;;19.70;99.90;;;;;;5036387;28;20393;-90
2021/07/06 09:07:46;;;;;;;5.25;2.55;;;19.70;99.90;;;;;;5036324;28;20060;-89
2021/07/06 09:10:17;;;;;;;6.47;2.45;;;19.80;99.90;;;;;;5035553;28;20063;-89
2021/07/06 09:12:46;;;;;;;4.95;2.30;;;19.80;99.90;;;;;;5054096;28;20039;-89
2021/07/06 09:15:19;;;;;;;3.72;2.30;;;19.90;99.90;;;;;;5036181;28;20021;-89
2021/07/06 09:17:46;;;;;;;4.25;2.47;;;19.90;99.90;;;;;;5053867;28;20051;-89
2021/07/06 09:20:11;;;;;;;6.53;2.20;;;19.90;99.90;;;;;;5053028;28;20052;-88
2021/07/06 09:22:37;;;;;;;5.30;3.92;;;19.90;99.90;;;;;;5036005;28;20513;-89
2021/07/06 09:25:08;;;;;;;4.05;2.40;;;19.90;99.90;;;;;;5054067;28;20037;-89
2021/07/06 09:27:42;;;;;;;5.25;2.08;;;20.00;99.90;;;;;;5035960;28;20079;-89
2021/07/06 09:30:16;;;;;;;5.32;2.10;;;20.00;99.90;;;;;;5035380;28;20389;-89
2021/07/06 09:32:49;;;;;;;7.30;2.90;;;20.00;99.90;;;;;;5053641;28;20029;-89
2021/07/06 09:35:18;;;;;;;4.75;2.28;;;20.00;99.90;;;;;;5035672;28;20139;-89
2021/07/06 09:37:52;;;;;;;5.68;2.10;;;20.00;99.90;;;;;;5035805;28;20104;-90
2021/07/06 09:40:23;;;;;;;5.13;2.22;;;20.10;99.90;;;;;;5034884;28;20032;-89
2021/07/06 09:43:15;;;;;;;5.60;2.00;;;20.10;99.90;;;;;;5035501;28;20107;-89
2021/07/06 09:45:42;;;;;;;5.75;2.05;;;20.10;99.90;;;;;;5053573;28;20395;-89
2021/07/06 09:48:10;;;;;;;3.53;2.10;;;20.10;99.90;;;;;;5053361;28;20029;-90
2021/07/06 09:50:36;;;;;;;7.07;2.60;;;20.20;99.90;;;;;;5034867;28;20060;-89
2021/07/06 09:53:01;;;;;;;6.32;2.17;;;20.20;99.90;;;;;;5053241;28;20025;-89
2021/07/06 09:55:31;;;;;;;4.68;1.70;;;20.20;99.90;;;;;;5035288;28;20054;-89
2021/07/06 09:57:58;;;;;;;3.95;1.63;;;20.30;99.90;;;;;;5052030;28;20025;-88
2021/07/06 10:00:24;;;;;;;3.20;1.75;;;20.30;99.90;;;;;;5052457;28;20363;-89
2021/07/06 10:03:01;;;;;;;3.28;1.70;;;20.40;99.90;;;;;;5035082;28;20083;-89
2021/07/06 10:05:28;;;;;;;3.33;1.70;;;20.40;99.90;;;;;;5035182;28;20075;-88
2021/07/06 10:07:55;;;;;;;2.83;1.10;;;20.40;99.90;;;;;;5035419;28;20045;-89
2021/07/06 10:10:22;;;;;;;4.78;1.20;;;20.50;99.90;;;;;;5034332;28;20025;-89
2021/07/06 10:12:49;;;;;;;3.60;1.20;;;20.60;99.20;;;;;;5052792;28;20100;-88
2021/07/06 10:15:17;;;;;;;2.38;0.98;;;20.60;99.20;;;;;;5035159;28;20119;-89
2021/07/06 10:17:43;;;;;;;3.10;1.00;;;20.60;98.20;;;;;;5035059;28;20497;-89
2021/07/06 10:20:16;;;;;;;3.13;1.00;;;20.50;97.00;;;;;;5034319;28;20357;-89
2021/07/06 10:22:41;;;;;;;3.90;0.82;;;20.60;96.30;;;;;;5035136;28;20017;-89
2021/07/06 10:25:09;;;;;;;4.57;1.00;;;20.50;95.10;;;;;;5035654;28;20086;-89
2021/07/06 10:27:38;;;;;;;2.28;0.95;;;20.50;95.00;;;;;;5036025;28;20474;-89
2021/07/06 10:30:20;;;;;;;1.67;0.68;;;20.70;94.70;;;;;;5034509;28;20033;-89
2021/07/06 10:32:49;;;;;;;4.68;0.80;;;20.70;94.20;;;;;;5034729;28;20497;-87
2021/07/06 10:35:16;;;;;;;1.63;0.90;;;20.70;93.40;;;;;;5034854;28;20025;-89
2021/07/06 10:37:43;;;;;;;3.20;0.68;;;20.80;93.30;;;;;;5034779;28;20021;-89
2021/07/06 10:40:22;;;;;;;1.92;0.77;;;20.90;93.30;;;;;;5033990;28;20021;-89
2021/07/06 10:42:51;;;;;;;1.98;0.70;;;20.90;93.80;;;;;;5034514;28;20017;-89
2021/07/06 10:45:22;;;;;;;2.53;0.70;;;20.90;93.00;;;;;;5052468;28;20025;-90
2021/07/06 10:47:52;;;;;;;2.17;0.82;;;21.00;92.10;;;;;;5034802;28;20055;-90
2021/07/06 10:50:30;;;;;;;1.55;0.68;;;21.10;92.40;;;;;;5034267;28;20035;-89
2021/07/06 10:53:16;;;;;;;1.43;0.60;;;21.20;92.30;;;;;;5051724;28;20396;-90
2021/07/06 10:55:43;;;;;;;2.10;0.80;;;21.20;91.70;;;;;;5034291;28;20291;-89
2021/07/06 10:58:09;;;;;;;2.92;0.70;;;21.30;91.70;;;;;;5034229;28;20044;-88
2021/07/06 11:00:42;;;;;;;1.75;0.93;;;21.40;91.10;;;;;;5051464;28;20470;-88
2021/07/06 11:03:19;;;;;;;2.95;0.70;;;21.50;90.50;;;;;;5034112;28;20163;-89
2021/07/06 11:05:45;;;;;;;1.95;0.60;;;21.50;90.30;;;;;;5034433;28;20334;-89
2021/07/06 11:08:39;;;;;;;2.47;0.57;;;21.60;89.20;;;;;;5034546;28;20024;-88
2021/07/06 11:11:05;;;;;;;1.45;0.70;;;21.70;87.40;;;;;;5033389;28;20025;-89
2021/07/06 11:13:31;;;;;;;3.80;0.77;;;21.70;88.20;;;;;;5034054;28;20031;-88
2021/07/06 11:15:58;;;;;;;2.55;1.02;;;21.80;88.40;;;;;;5052023;28;20028;-90
2021/07/06 11:18:35;;;;;;;3.28;0.73;;;21.80;89.20;;;;;;5051920;28;20032;-89
2021/07/06 11:21:02;;;;;;;3.15;0.90;;;21.90;88.40;;;;;;5103500;23;20564;-85
2021/07/06 11:23:34;;;;;;;1.67;0.70;;;21.90;89.10;;;;;;5094087;28;20491;-85
2021/07/06 11:26:03;;;;;;;2.08;0.60;;;22.00;87.30;;;;;;5112459;28;20035;-85
2021/07/06 11:28:28;;;;;;;1.65;0.55;;;22.10;86.50;;;;;;5094204;28;20414;-85
2021/07/06 11:30:55;;;;;;;3.70;0.90;;;22.10;84.60;;;;;;5093741;28;20031;-85
2021/07/06 11:33:40;;;;;;;1.30;0.70;;;22.00;85.30;;;;;;5112467;28;20480;-85
2021/07/06 11:36:16;;;;;;;4.45;0.70;;;22.20;85.90;;;;;;5094223;28;20042;-85
2021/07/06 11:38:44;;;;;;;2.13;0.70;;;22.20;84.80;;;;;;5113083;28;20532;-84
2021/07/06 11:41:12;;;;;;;3.42;0.75;;;22.30;83.20;;;;;;5094501;28;20137;-85
2021/07/06 11:43:40;;;;;;;3.05;1.02;;;22.30;83.20;;;;;;5094556;28;20126;-84
2021/07/06 11:46:08;;;;;;;3.70;0.68;;;22.30;82.10;;;;;;5113005;28;20028;-85
2021/07/06 11:48:36;;;;;;;2.55;0.75;;;22.40;81.30;;;;;;5094567;28;20035;-85
2021/07/06 11:51:13;;;;;;;2.47;0.73;;;22.30;82.60;;;;;;5112501;28;20031;-84
2021/07/06 11:53:41;;;;;;;3.30;0.80;;;22.30;82.50;;;;;;5094673;28;20020;-85
2021/07/06 11:56:10;;;;;;;1.25;0.60;;;22.30;82.40;;;;;;5094462;28;20030;-85
2021/07/06 11:58:37;;;;;;;4.15;1.13;;;22.40;82.40;;;;;;5112791;28;20038;-85
2021/07/06 12:01:10;;;;;;;4.85;0.73;;;22.50;81.40;;;;;;5093975;28;20051;-84
2021/07/06 12:03:37;;;;;;;2.88;0.77;;;22.50;81.70;;;;;;5112741;28;20076;-85
2021/07/06 12:06:08;;;;;;;3.58;0.65;;;22.50;82.60;;;;;;5099775;28;20239;-85
2021/07/06 12:08:36;;;;;;;4.32;0.93;;;22.40;82.40;;;;;;5099833;28;20111;-85
2021/07/06 12:11:14;;;;;;;4.18;0.63;;;22.50;83.60;;;;;;5099895;28;20023;-85
2021/07/06 12:13:39;;;;;;;2.17;0.60;;;22.50;83.00;;;;;;5098417;28;20495;-85
2021/07/06 12:16:13;;;;;;;6.22;0.95;;;22.60;81.20;;;;;;5097659;28;20027;-85
2021/07/06 12:18:55;;;;;;;3.65;0.65;;;22.70;81.70;;;;;;5098532;28;20017;-84
2021/07/06 12:21:35;;;;;;;3.20;0.80;;;22.70;80.30;;;;;;5098305;28;20031;-84
2021/07/06 12:24:07;;;;;;;0.98;0.65;;;22.80;80.30;;;;;;5098207;28;20016;-84
2021/07/06 12:26:37;;;;;;;3.92;1.08;;;22.80;80.30;;;;;;5098275;28;20019;-84
2021/07/06 12:29:03;;;;;;;6.22;1.38;;;22.80;81.70;;;;;;5097478;28;20043;-84
2021/07/06 12:31:33;;;;;;;5.68;1.05;;;22.70;82.20;;;;;;5097390;28;20027;-84
2021/07/06 12:34:14;;;;;;;3.40;1.08;;;22.70;81.50;;;;;;5097732;28;20043;-84
2021/07/06 12:36:46;;;;;;;4.78;1.40;;;22.70;82.00;;;;;;5097812;28;20031;-84
2021/07/06 12:39:43;;;;;;;8.15;1.35;;;22.90;81.90;;;;;;5097189;28;20436;-85
2021/07/06 12:42:18;;;;;;;5.15;0.90;;;23.10;82.10;;;;;;5085268;28;20043;-84
2021/07/06 12:44:49;;;;;;;3.83;1.05;;;23.20;79.90;;;;;;5097244;28;20377;-85
2021/07/06 12:47:21;;;;;;;6.55;0.90;;;23.30;75.60;;;;;;5115781;28;20031;-85
2021/07/06 12:49:58;;;;;;;3.60;0.90;;;23.30;75.00;;;;;;5096992;28;20024;-85